sensor_id;sensor_type;location;lat;lon;timestamp;temperature;humidity
64654;DHT22;51065;48.884;12.598;2022-08-01T00:01:33;19.60;99.90
64654;DHT22;51065;48.884;12.598;2022-08-01T00:03:59;19.60;99.90
64654;DHT22;51065;48.884;12.598;2022-08-01T00:06:25;19.50;99.90
64654;DHT22;51065;48.884;12.598;2022-08-01T00:08:51;19.60;99.90
64654;DHT22;51065;48.884;12.598;2022-08-01T00:11:16;19.60;99.90
64654;DHT22;51065;48.884;12.598;2022-08-01T00:13:42;19.60;99.90
64654;DHT22;51065;48.884;12.598;2022-08-01T00:16:08;19.60;99.90
64654;DHT22;51065;48.884;12.598;2022-08-01T00:18:33;19.60;99.90
64654;DHT22;51065;48.884;12.598;2022-08-01T00:21:01;19.50;99.90
64654;DHT22;51065;48.884;12.598;2022-08-01T00:23:27;19.50;99.90
64654;DHT22;51065;48.884;12.598;2022-08-01T00:25:52;19.30;99.90
64654;DHT22;51065;48.884;12.598;2022-08-01T00:28:18;19.30;99.90
64654;DHT22;51065;48.884;12.598;2022-08-01T00:30:43;19.30;99.90
64654;DHT22;51065;48.884;12.598;2022-08-01T00:33:09;19.20;99.90
64654;DHT22;51065;48.884;12.598;2022-08-01T00:35:34;19.10;99.90
64654;DHT22;51065;48.884;12.598;2022-08-01T00:38:00;19.10;99.90
64654;DHT22;51065;48.884;12.598;2022-08-01T00:40:25;19.00;99.90
64654;DHT22;51065;48.884;12.598;2022-08-01T00:42:51;19.00;99.90
64654;DHT22;51065;48.884;12.598;2022-08-01T00:45:17;19.10;99.90
64654;DHT22;51065;48.884;12.598;2022-08-01T00:47:42;19.10;99.90
64654;DHT22;51065;48.884;12.598;2022-08-01T00:50:08;19.10;99.90
64654;DHT22;51065;48.884;12.598;2022-08-01T00:52:35;19.20;99.90
64654;DHT22;51065;48.884;12.598;2022-08-01T00:55:01;19.20;99.90
64654;DHT22;51065;48.884;12.598;2022-08-01T00:57:26;19.30;99.90
64654;DHT22;51065;48.884;12.598;2022-08-01T00:59:52;19.30;99.90
64654;DHT22;51065;48.884;12.598;2022-08-01T01:02:18;19.30;99.90
64654;DHT22;51065;48.884;12.598;2022-08-01T01:04:44;19.20;99.90
64654;DHT22;51065;48.884;12.598;2022-08-01T01:12:50;19.20;99.90
64654;DHT22;51065;48.884;12.598;2022-08-01T01:17:58;19.20;99.90
64654;DHT22;51065;48.884;12.598;2022-08-01T01:20:34;19.20;99.90
64654;DHT22;51065;48.884;12.598;2022-08-01T01:26:28;19.10;99.90
64654;DHT22;51065;48.884;12.598;2022-08-01T01:29:09;19.10;99.90
64654;DHT22;51065;48.884;12.598;2022-08-01T01:31:44;19.10;99.90
64654;DHT22;51065;48.884;12.598;2022-08-01T01:34:12;19.00;99.90
64654;DHT22;51065;48.884;12.598;2022-08-01T01:36:39;18.90;99.90
64654;DHT22;51065;48.884;12.598;2022-08-01T01:39:05;18.90;99.90
64654;DHT22;51065;48.884;12.598;2022-08-01T01:41:32;18.80;99.90
64654;DHT22;51065;48.884;12.598;2022-08-01T01:44:00;18.70;99.90
64654;DHT22;51065;48.884;12.598;2022-08-01T01:46:27;18.70;99.90
64654;DHT22;51065;48.884;12.598;2022-08-01T01:48:55;18.70;99.90
64654;DHT22;51065;48.884;12.598;2022-08-01T01:51:23;18.60;99.90
64654;DHT22;51065;48.884;12.598;2022-08-01T01:53:52;18.60;99.90
64654;DHT22;51065;48.884;12.598;2022-08-01T01:56:18;18.60;99.90
64654;DHT22;51065;48.884;12.598;2022-08-01T01:58:45;18.50;99.90
64654;DHT22;51065;48.884;12.598;2022-08-01T02:01:14;18.40;99.90
64654;DHT22;51065;48.884;12.598;2022-08-01T02:03:40;18.40;99.90
64654;DHT22;51065;48.884;12.598;2022-08-01T02:06:07;18.30;99.90
64654;DHT22;51065;48.884;12.598;2022-08-01T02:08:34;18.30;99.90
64654;DHT22;51065;48.884;12.598;2022-08-01T02:11:01;18.30;99.90
64654;DHT22;51065;48.884;12.598;2022-08-01T02:14:00;18.20;99.90
64654;DHT22;51065;48.884;12.598;2022-08-01T02:16:31;18.10;99.90
64654;DHT22;51065;48.884;12.598;2022-08-01T02:18:58;17.90;99.90
64654;DHT22;51065;48.884;12.598;2022-08-01T02:21:41;17.80;99.90
64654;DHT22;51065;48.884;12.598;2022-08-01T02:24:35;17.80;99.90
64654;DHT22;51065;48.884;12.598;2022-08-01T02:27:06;17.80;99.90
64654;DHT22;51065;48.884;12.598;2022-08-01T02:29:42;17.80;99.90
64654;DHT22;51065;48.884;12.598;2022-08-01T02:32:15;17.80;99.90
64654;DHT22;51065;48.884;12.598;2022-08-01T02:34:47;17.90;99.90
64654;DHT22;51065;48.884;12.598;2022-08-01T02:37:15;17.90;99.90
64654;DHT22;51065;48.884;12.598;2022-08-01T02:39:41;17.90;99.90
64654;DHT22;51065;48.884;12.598;2022-08-01T02:42:08;17.90;99.90
64654;DHT22;51065;48.884;12.598;2022-08-01T02:44:39;18.00;99.90
64654;DHT22;51065;48.884;12.598;2022-08-01T02:47:07;18.00;99.90
64654;DHT22;51065;48.884;12.598;2022-08-01T02:49:36;18.00;99.90
64654;DHT22;51065;48.884;12.598;2022-08-01T02:52:06;18.00;99.90
64654;DHT22;51065;48.884;12.598;2022-08-01T02:54:33;18.00;99.90
64654;DHT22;51065;48.884;12.598;2022-08-01T02:57:00;18.00;99.90
64654;DHT22;51065;48.884;12.598;2022-08-01T02:59:29;18.00;99.90
64654;DHT22;51065;48.884;12.598;2022-08-01T03:01:56;18.00;99.90
64654;DHT22;51065;48.884;12.598;2022-08-01T03:04:24;17.90;99.90
64654;DHT22;51065;48.884;12.598;2022-08-01T03:06:51;17.90;99.90
64654;DHT22;51065;48.884;12.598;2022-08-01T03:09:18;17.90;99.90
64654;DHT22;51065;48.884;12.598;2022-08-01T03:11:45;17.90;99.90
64654;DHT22;51065;48.884;12.598;2022-08-01T03:14:12;17.80;99.90
64654;DHT22;51065;48.884;12.598;2022-08-01T03:16:40;17.80;99.90
64654;DHT22;51065;48.884;12.598;2022-08-01T03:19:08;17.80;99.90
64654;DHT22;51065;48.884;12.598;2022-08-01T03:21:35;17.90;99.90
64654;DHT22;51065;48.884;12.598;2022-08-01T03:24:04;17.90;99.90
64654;DHT22;51065;48.884;12.598;2022-08-01T03:26:33;18.00;99.90
64654;DHT22;51065;48.884;12.598;2022-08-01T03:29:04;18.00;99.90
64654;DHT22;51065;48.884;12.598;2022-08-01T03:31:36;18.10;99.90
64654;DHT22;51065;48.884;12.598;2022-08-01T03:34:02;18.10;99.90
64654;DHT22;51065;48.884;12.598;2022-08-01T03:36:28;18.00;99.90
64654;DHT22;51065;48.884;12.598;2022-08-01T03:38:58;17.90;99.90
64654;DHT22;51065;48.884;12.598;2022-08-01T03:41:28;17.80;99.90
64654;DHT22;51065;48.884;12.598;2022-08-01T03:43:57;17.80;99.90
64654;DHT22;51065;48.884;12.598;2022-08-01T03:46:35;17.70;99.90
64654;DHT22;51065;48.884;12.598;2022-08-01T03:49:07;17.70;99.90
64654;DHT22;51065;48.884;12.598;2022-08-01T03:51:37;17.70;99.90
64654;DHT22;51065;48.884;12.598;2022-08-01T03:54:04;17.80;99.90
64654;DHT22;51065;48.884;12.598;2022-08-01T03:56:30;17.90;99.90
64654;DHT22;51065;48.884;12.598;2022-08-01T03:58:59;18.00;99.90
64654;DHT22;51065;48.884;12.598;2022-08-01T04:01:25;18.10;99.90
64654;DHT22;51065;48.884;12.598;2022-08-01T04:03:51;18.20;99.90
64654;DHT22;51065;48.884;12.598;2022-08-01T04:06:17;18.30;99.90
64654;DHT22;51065;48.884;12.598;2022-08-01T04:08:42;18.30;99.90
64654;DHT22;51065;48.884;12.598;2022-08-01T04:11:09;18.40;99.90
64654;DHT22;51065;48.884;12.598;2022-08-01T04:13:35;18.30;99.90
64654;DHT22;51065;48.884;12.598;2022-08-01T04:16:00;18.30;99.90
64654;DHT22;51065;48.884;12.598;2022-08-01T04:18:26;18.30;99.90
64654;DHT22;51065;48.884;12.598;2022-08-01T04:20:52;18.40;99.90
64654;DHT22;51065;48.884;12.598;2022-08-01T04:23:22;18.40;99.90
64654;DHT22;51065;48.884;12.598;2022-08-01T04:25:50;18.50;99.90
64654;DHT22;51065;48.884;12.598;2022-08-01T04:28:18;18.50;99.90
64654;DHT22;51065;48.884;12.598;2022-08-01T04:30:48;18.50;99.90
64654;DHT22;51065;48.884;12.598;2022-08-01T04:33:17;18.60;99.90
64654;DHT22;51065;48.884;12.598;2022-08-01T04:35:45;18.60;99.90
64654;DHT22;51065;48.884;12.598;2022-08-01T04:38:14;18.70;99.90
64654;DHT22;51065;48.884;12.598;2022-08-01T04:40:43;18.70;99.90
64654;DHT22;51065;48.884;12.598;2022-08-01T04:43:10;18.70;99.90
64654;DHT22;51065;48.884;12.598;2022-08-01T04:45:36;18.80;99.90
64654;DHT22;51065;48.884;12.598;2022-08-01T04:48:05;18.80;99.90
64654;DHT22;51065;48.884;12.598;2022-08-01T04:50:35;18.90;99.90
64654;DHT22;51065;48.884;12.598;2022-08-01T04:53:01;19.00;99.90
64654;DHT22;51065;48.884;12.598;2022-08-01T04:55:28;19.10;99.90
64654;DHT22;51065;48.884;12.598;2022-08-01T04:57:54;19.10;99.90
64654;DHT22;51065;48.884;12.598;2022-08-01T05:00:19;19.20;99.90
64654;DHT22;51065;48.884;12.598;2022-08-01T05:02:45;19.30;99.90
64654;DHT22;51065;48.884;12.598;2022-08-01T05:05:11;19.40;99.90
64654;DHT22;51065;48.884;12.598;2022-08-01T05:07:37;19.50;99.90
64654;DHT22;51065;48.884;12.598;2022-08-01T05:10:04;19.60;99.90
64654;DHT22;51065;48.884;12.598;2022-08-01T05:12:30;19.70;99.90
64654;DHT22;51065;48.884;12.598;2022-08-01T05:14:57;19.70;99.90
64654;DHT22;51065;48.884;12.598;2022-08-01T05:17:23;19.80;99.60
64654;DHT22;51065;48.884;12.598;2022-08-01T05:19:49;19.90;99.10
64654;DHT22;51065;48.884;12.598;2022-08-01T05:22:14;20.00;98.80
64654;DHT22;51065;48.884;12.598;2022-08-01T05:24:40;20.10;98.90
64654;DHT22;51065;48.884;12.598;2022-08-01T05:27:06;20.20;97.70
64654;DHT22;51065;48.884;12.598;2022-08-01T05:29:33;20.40;98.70
64654;DHT22;51065;48.884;12.598;2022-08-01T05:31:59;20.50;97.00
64654;DHT22;51065;48.884;12.598;2022-08-01T05:34:25;20.60;96.70
64654;DHT22;51065;48.884;12.598;2022-08-01T05:36:51;20.60;96.80
64654;DHT22;51065;48.884;12.598;2022-08-01T05:39:17;20.60;96.40
64654;DHT22;51065;48.884;12.598;2022-08-01T05:41:42;20.70;96.00
64654;DHT22;51065;48.884;12.598;2022-08-01T05:44:09;20.80;95.60
64654;DHT22;51065;48.884;12.598;2022-08-01T05:46:35;20.80;95.70
64654;DHT22;51065;48.884;12.598;2022-08-01T05:49:01;20.70;95.80
64654;DHT22;51065;48.884;12.598;2022-08-01T05:51:27;20.70;96.20
64654;DHT22;51065;48.884;12.598;2022-08-01T05:53:53;21.20;95.50
64654;DHT22;51065;48.884;12.598;2022-08-01T05:56:19;22.00;93.80
64654;DHT22;51065;48.884;12.598;2022-08-01T05:58:45;22.90;92.10
64654;DHT22;51065;48.884;12.598;2022-08-01T06:01:11;24.10;90.20
64654;DHT22;51065;48.884;12.598;2022-08-01T06:03:37;24.80;84.00
64654;DHT22;51065;48.884;12.598;2022-08-01T06:06:03;25.60;77.20
64654;DHT22;51065;48.884;12.598;2022-08-01T06:08:29;25.90;72.70
64654;DHT22;51065;48.884;12.598;2022-08-01T06:10:54;25.80;69.40
64654;DHT22;51065;48.884;12.598;2022-08-01T06:13:20;26.10;67.20
64654;DHT22;51065;48.884;12.598;2022-08-01T06:15:46;25.40;66.90
64654;DHT22;51065;48.884;12.598;2022-08-01T06:18:12;25.50;66.70
64654;DHT22;51065;48.884;12.598;2022-08-01T06:20:38;26.00;66.10
64654;DHT22;51065;48.884;12.598;2022-08-01T06:23:03;26.10;65.40
64654;DHT22;51065;48.884;12.598;2022-08-01T06:25:30;25.90;64.60
64654;DHT22;51065;48.884;12.598;2022-08-01T06:27:55;26.40;63.40
64654;DHT22;51065;48.884;12.598;2022-08-01T06:30:21;26.30;62.90
64654;DHT22;51065;48.884;12.598;2022-08-01T06:32:47;26.70;62.20
64654;DHT22;51065;48.884;12.598;2022-08-01T06:35:13;26.60;62.30
64654;DHT22;51065;48.884;12.598;2022-08-01T06:37:39;26.90;60.20
64654;DHT22;51065;48.884;12.598;2022-08-01T06:40:07;27.30;60.30
64654;DHT22;51065;48.884;12.598;2022-08-01T06:42:33;27.60;59.10
64654;DHT22;51065;48.884;12.598;2022-08-01T06:45:08;27.90;56.30
64654;DHT22;51065;48.884;12.598;2022-08-01T06:47:34;28.20;56.80
64654;DHT22;51065;48.884;12.598;2022-08-01T06:49:59;28.20;55.70
64654;DHT22;51065;48.884;12.598;2022-08-01T06:52:25;28.30;55.30
64654;DHT22;51065;48.884;12.598;2022-08-01T06:54:51;28.20;55.80
64654;DHT22;51065;48.884;12.598;2022-08-01T06:57:16;28.60;54.20
64654;DHT22;51065;48.884;12.598;2022-08-01T06:59:42;28.30;55.60
64654;DHT22;51065;48.884;12.598;2022-08-01T07:02:08;28.70;53.90
64654;DHT22;51065;48.884;12.598;2022-08-01T07:04:34;28.80;54.00
64654;DHT22;51065;48.884;12.598;2022-08-01T07:07:00;28.70;53.30
64654;DHT22;51065;48.884;12.598;2022-08-01T07:09:26;28.30;53.60
64654;DHT22;51065;48.884;12.598;2022-08-01T07:11:52;27.60;55.20
64654;DHT22;51065;48.884;12.598;2022-08-01T07:14:18;27.60;55.50
64654;DHT22;51065;48.884;12.598;2022-08-01T07:16:44;27.80;55.10
64654;DHT22;51065;48.884;12.598;2022-08-01T07:19:10;28.10;55.00
64654;DHT22;51065;48.884;12.598;2022-08-01T07:21:36;28.80;53.60
64654;DHT22;51065;48.884;12.598;2022-08-01T07:24:01;28.60;55.20
64654;DHT22;51065;48.884;12.598;2022-08-01T07:26:27;28.80;53.90
64654;DHT22;51065;48.884;12.598;2022-08-01T07:28:53;28.50;54.00
64654;DHT22;51065;48.884;12.598;2022-08-01T07:31:19;29.20;53.30
64654;DHT22;51065;48.884;12.598;2022-08-01T07:33:44;29.50;52.60
64654;DHT22;51065;48.884;12.598;2022-08-01T07:36:10;29.70;52.60
64654;DHT22;51065;48.884;12.598;2022-08-01T07:38:36;30.00;50.40
64654;DHT22;51065;48.884;12.598;2022-08-01T07:41:02;30.20;50.40
64654;DHT22;51065;48.884;12.598;2022-08-01T07:43:27;30.00;51.20
64654;DHT22;51065;48.884;12.598;2022-08-01T07:45:53;30.30;50.90
64654;DHT22;51065;48.884;12.598;2022-08-01T07:48:19;30.10;51.10
64654;DHT22;51065;48.884;12.598;2022-08-01T07:50:45;30.20;50.40
64654;DHT22;51065;48.884;12.598;2022-08-01T07:53:11;29.80;51.30
64654;DHT22;51065;48.884;12.598;2022-08-01T07:55:37;30.50;50.20
64654;DHT22;51065;48.884;12.598;2022-08-01T07:58:02;31.00;49.70
64654;DHT22;51065;48.884;12.598;2022-08-01T08:00:28;31.70;47.60
64654;DHT22;51065;48.884;12.598;2022-08-01T08:02:54;31.40;47.30
64654;DHT22;51065;48.884;12.598;2022-08-01T08:05:20;30.90;47.60
64654;DHT22;51065;48.884;12.598;2022-08-01T08:07:45;30.30;49.40
64654;DHT22;51065;48.884;12.598;2022-08-01T08:10:11;29.60;50.50
64654;DHT22;51065;48.884;12.598;2022-08-01T08:12:37;29.60;51.40
64654;DHT22;51065;48.884;12.598;2022-08-01T08:15:03;30.00;50.60
64654;DHT22;51065;48.884;12.598;2022-08-01T08:17:31;31.00;49.50
64654;DHT22;51065;48.884;12.598;2022-08-01T08:19:57;31.60;49.60
64654;DHT22;51065;48.884;12.598;2022-08-01T08:22:23;31.30;47.50
64654;DHT22;51065;48.884;12.598;2022-08-01T08:24:48;31.10;48.20
64654;DHT22;51065;48.884;12.598;2022-08-01T08:27:14;31.40;47.50
64654;DHT22;51065;48.884;12.598;2022-08-01T08:29:40;31.70;47.70
64654;DHT22;51065;48.884;12.598;2022-08-01T08:32:07;31.60;47.40
64654;DHT22;51065;48.884;12.598;2022-08-01T08:34:33;30.90;48.30
64654;DHT22;51065;48.884;12.598;2022-08-01T08:36:59;31.00;49.40
64654;DHT22;51065;48.884;12.598;2022-08-01T08:39:25;30.90;48.70
64654;DHT22;51065;48.884;12.598;2022-08-01T08:41:51;30.90;49.00
64654;DHT22;51065;48.884;12.598;2022-08-01T08:44:17;31.70;47.80
64654;DHT22;51065;48.884;12.598;2022-08-01T08:46:47;30.30;49.30
64654;DHT22;51065;48.884;12.598;2022-08-01T08:49:18;29.50;50.60
64654;DHT22;51065;48.884;12.598;2022-08-01T08:51:48;29.60;51.50
64654;DHT22;51065;48.884;12.598;2022-08-01T08:54:14;30.40;50.10
64654;DHT22;51065;48.884;12.598;2022-08-01T08:56:40;30.30;48.70
64654;DHT22;51065;48.884;12.598;2022-08-01T08:59:07;30.40;49.80
64654;DHT22;51065;48.884;12.598;2022-08-01T09:01:33;30.90;49.30
64654;DHT22;51065;48.884;12.598;2022-08-01T09:04:00;30.40;48.10
64654;DHT22;51065;48.884;12.598;2022-08-01T09:06:26;30.60;49.90
64654;DHT22;51065;48.884;12.598;2022-08-01T09:08:53;30.50;49.20
64654;DHT22;51065;48.884;12.598;2022-08-01T09:11:19;29.70;50.50
64654;DHT22;51065;48.884;12.598;2022-08-01T09:14:04;29.30;51.80
64654;DHT22;51065;48.884;12.598;2022-08-01T09:16:31;29.20;52.00
64654;DHT22;51065;48.884;12.598;2022-08-01T09:19:17;28.80;52.10
64654;DHT22;51065;48.884;12.598;2022-08-01T09:21:56;28.10;53.70
64654;DHT22;51065;48.884;12.598;2022-08-01T09:24:22;28.00;55.00
64654;DHT22;51065;48.884;12.598;2022-08-01T09:26:48;27.70;55.40
64654;DHT22;51065;48.884;12.598;2022-08-01T09:29:21;28.10;55.50
64654;DHT22;51065;48.884;12.598;2022-08-01T09:31:47;29.80;52.60
64654;DHT22;51065;48.884;12.598;2022-08-01T09:34:13;31.20;49.90
64654;DHT22;51065;48.884;12.598;2022-08-01T09:36:51;31.80;49.30
64654;DHT22;51065;48.884;12.598;2022-08-01T09:39:18;32.50;48.00
64654;DHT22;51065;48.884;12.598;2022-08-01T09:41:45;32.20;46.40
64654;DHT22;51065;48.884;12.598;2022-08-01T09:44:11;31.60;46.10
64654;DHT22;51065;48.884;12.598;2022-08-01T09:46:52;30.60;47.80
64654;DHT22;51065;48.884;12.598;2022-08-01T09:49:31;29.60;50.50
64654;DHT22;51065;48.884;12.598;2022-08-01T09:51:57;28.90;50.90
64654;DHT22;51065;48.884;12.598;2022-08-01T09:54:33;28.10;52.20
64654;DHT22;51065;48.884;12.598;2022-08-01T09:57:28;27.50;53.80
64654;DHT22;51065;48.884;12.598;2022-08-01T09:59:59;27.30;55.30
64654;DHT22;51065;48.884;12.598;2022-08-01T10:02:32;27.90;54.70
64654;DHT22;51065;48.884;12.598;2022-08-01T10:04:58;29.00;52.20
64654;DHT22;51065;48.884;12.598;2022-08-01T10:07:24;29.70;50.40
64654;DHT22;51065;48.884;12.598;2022-08-01T10:09:49;30.00;50.60
64654;DHT22;51065;48.884;12.598;2022-08-01T10:12:18;30.00;50.20
64654;DHT22;51065;48.884;12.598;2022-08-01T10:14:46;30.00;49.50
64654;DHT22;51065;48.884;12.598;2022-08-01T10:17:14;29.60;49.70
64654;DHT22;51065;48.884;12.598;2022-08-01T10:19:41;29.40;51.00
64654;DHT22;51065;48.884;12.598;2022-08-01T10:22:09;29.80;50.00
64654;DHT22;51065;48.884;12.598;2022-08-01T10:24:39;29.90;49.70
64654;DHT22;51065;48.884;12.598;2022-08-01T10:27:09;29.20;49.00
64654;DHT22;51065;48.884;12.598;2022-08-01T10:29:41;28.70;50.20
64654;DHT22;51065;48.884;12.598;2022-08-01T10:32:08;28.30;51.80
64654;DHT22;51065;48.884;12.598;2022-08-01T10:34:35;28.90;50.50
64654;DHT22;51065;48.884;12.598;2022-08-01T10:37:03;29.80;48.80
64654;DHT22;51065;48.884;12.598;2022-08-01T10:39:30;31.10;48.10
64654;DHT22;51065;48.884;12.598;2022-08-01T10:41:56;32.30;44.90
64654;DHT22;51065;48.884;12.598;2022-08-01T10:44:24;32.20;44.70
64654;DHT22;51065;48.884;12.598;2022-08-01T10:46:54;32.30;44.20
64654;DHT22;51065;48.884;12.598;2022-08-01T10:49:22;32.60;43.60
64654;DHT22;51065;48.884;12.598;2022-08-01T10:51:49;33.30;45.10
64654;DHT22;51065;48.884;12.598;2022-08-01T10:54:15;33.30;43.30
64654;DHT22;51065;48.884;12.598;2022-08-01T10:56:50;33.50;41.90
64654;DHT22;51065;48.884;12.598;2022-08-01T10:59:26;32.60;43.70
64654;DHT22;51065;48.884;12.598;2022-08-01T11:02:03;32.10;44.40
64654;DHT22;51065;48.884;12.598;2022-08-01T11:07:16;31.00;44.60
64654;DHT22;51065;48.884;12.598;2022-08-01T11:09:45;30.60;46.00
64654;DHT22;51065;48.884;12.598;2022-08-01T11:12:14;30.50;47.00
64654;DHT22;51065;48.884;12.598;2022-08-01T11:17:45;31.70;44.10
64654;DHT22;51065;48.884;12.598;2022-08-01T11:20:18;31.60;46.10
64654;DHT22;51065;48.884;12.598;2022-08-01T11:33:07;32.20;45.00
64654;DHT22;51065;48.884;12.598;2022-08-01T11:35:35;32.30;44.30
64654;DHT22;51065;48.884;12.598;2022-08-01T11:38:26;32.80;43.20
64654;DHT22;51065;48.884;12.598;2022-08-01T11:52:22;32.80;41.70
64654;DHT22;51065;48.884;12.598;2022-08-01T11:57:29;30.80;44.60
64654;DHT22;51065;48.884;12.598;2022-08-01T12:00:19;30.40;44.90
64654;DHT22;51065;48.884;12.598;2022-08-01T12:02:46;29.80;45.70
64654;DHT22;51065;48.884;12.598;2022-08-01T12:05:13;29.50;47.00
64654;DHT22;51065;48.884;12.598;2022-08-01T12:07:41;30.40;47.00
64654;DHT22;51065;48.884;12.598;2022-08-01T12:10:11;31.00;44.10
64654;DHT22;51065;48.884;12.598;2022-08-01T12:12:48;30.00;45.40
64654;DHT22;51065;48.884;12.598;2022-08-01T12:15:15;29.80;46.60
64654;DHT22;51065;48.884;12.598;2022-08-01T12:17:43;30.10;45.70
64654;DHT22;51065;48.884;12.598;2022-08-01T12:20:14;30.10;45.50
64654;DHT22;51065;48.884;12.598;2022-08-01T12:22:40;29.70;45.80
64654;DHT22;51065;48.884;12.598;2022-08-01T12:27:33;29.40;46.10
64654;DHT22;51065;48.884;12.598;2022-08-01T12:29:59;29.40;45.90
64654;DHT22;51065;48.884;12.598;2022-08-01T12:32:33;29.60;46.30
64654;DHT22;51065;48.884;12.598;2022-08-01T12:35:03;30.30;46.50
64654;DHT22;51065;48.884;12.598;2022-08-01T12:37:29;30.80;44.50
64654;DHT22;51065;48.884;12.598;2022-08-01T12:39:55;31.30;44.00
64654;DHT22;51065;48.884;12.598;2022-08-01T12:42:22;31.50;43.90
64654;DHT22;51065;48.884;12.598;2022-08-01T12:44:50;31.60;44.00
64654;DHT22;51065;48.884;12.598;2022-08-01T12:47:18;30.70;43.60
64654;DHT22;51065;48.884;12.598;2022-08-01T12:49:44;30.50;44.50
64654;DHT22;51065;48.884;12.598;2022-08-01T12:52:11;30.00;45.10
64654;DHT22;51065;48.884;12.598;2022-08-01T12:54:59;29.80;45.30
64654;DHT22;51065;48.884;12.598;2022-08-01T12:57:25;29.80;45.50
64654;DHT22;51065;48.884;12.598;2022-08-01T12:59:53;30.50;44.30
64654;DHT22;51065;48.884;12.598;2022-08-01T13:02:19;31.10;43.40
64654;DHT22;51065;48.884;12.598;2022-08-01T13:04:50;31.70;43.00
64654;DHT22;51065;48.884;12.598;2022-08-01T13:07:17;32.10;42.20
64654;DHT22;51065;48.884;12.598;2022-08-01T13:09:50;32.30;41.20
64654;DHT22;51065;48.884;12.598;2022-08-01T13:12:15;32.20;41.60
64654;DHT22;51065;48.884;12.598;2022-08-01T13:14:41;32.00;41.50
64654;DHT22;51065;48.884;12.598;2022-08-01T13:17:07;31.50;42.20
64654;DHT22;51065;48.884;12.598;2022-08-01T13:19:43;31.20;42.60
64654;DHT22;51065;48.884;12.598;2022-08-01T13:22:08;31.00;42.90
64654;DHT22;51065;48.884;12.598;2022-08-01T13:24:34;31.40;41.20
64654;DHT22;51065;48.884;12.598;2022-08-01T13:27:03;31.70;41.50
64654;DHT22;51065;48.884;12.598;2022-08-01T13:29:33;32.00;41.60
64654;DHT22;51065;48.884;12.598;2022-08-01T13:31:59;31.20;40.50
64654;DHT22;51065;48.884;12.598;2022-08-01T13:34:34;31.30;42.00
64654;DHT22;51065;48.884;12.598;2022-08-01T13:37:00;30.70;40.90
64654;DHT22;51065;48.884;12.598;2022-08-01T13:39:29;30.50;43.20
64654;DHT22;51065;48.884;12.598;2022-08-01T13:42:13;30.50;42.30
64654;DHT22;51065;48.884;12.598;2022-08-01T13:44:40;30.70;42.20
64654;DHT22;51065;48.884;12.598;2022-08-01T13:47:06;30.60;42.30
64654;DHT22;51065;48.884;12.598;2022-08-01T13:49:32;30.50;42.00
64654;DHT22;51065;48.884;12.598;2022-08-01T13:51:58;30.50;42.00
64654;DHT22;51065;48.884;12.598;2022-08-01T13:54:25;30.50;43.00
64654;DHT22;51065;48.884;12.598;2022-08-01T13:56:51;30.80;44.20
64654;DHT22;51065;48.884;12.598;2022-08-01T13:59:17;31.20;44.10
64654;DHT22;51065;48.884;12.598;2022-08-01T14:01:43;32.00;42.30
64654;DHT22;51065;48.884;12.598;2022-08-01T14:04:09;32.30;40.40
64654;DHT22;51065;48.884;12.598;2022-08-01T14:06:34;32.30;40.70
64654;DHT22;51065;48.884;12.598;2022-08-01T14:09:01;31.40;41.70
64654;DHT22;51065;48.884;12.598;2022-08-01T14:11:27;31.00;41.70
64654;DHT22;51065;48.884;12.598;2022-08-01T14:13:53;30.70;43.30
64654;DHT22;51065;48.884;12.598;2022-08-01T14:16:19;30.60;44.30
64654;DHT22;51065;48.884;12.598;2022-08-01T14:18:44;30.90;42.70
64654;DHT22;51065;48.884;12.598;2022-08-01T14:21:10;31.00;42.90
64654;DHT22;51065;48.884;12.598;2022-08-01T14:23:36;31.00;42.30
64654;DHT22;51065;48.884;12.598;2022-08-01T14:26:02;31.10;42.60
64654;DHT22;51065;48.884;12.598;2022-08-01T14:28:28;31.00;42.30
64654;DHT22;51065;48.884;12.598;2022-08-01T14:30:57;31.10;42.30
64654;DHT22;51065;48.884;12.598;2022-08-01T14:33:23;31.00;41.80
64654;DHT22;51065;48.884;12.598;2022-08-01T14:35:49;31.20;41.40
64654;DHT22;51065;48.884;12.598;2022-08-01T14:38:15;31.10;40.90
64654;DHT22;51065;48.884;12.598;2022-08-01T14:40:40;31.20;40.60
64654;DHT22;51065;48.884;12.598;2022-08-01T14:43:06;31.00;40.70
64654;DHT22;51065;48.884;12.598;2022-08-01T14:45:32;30.70;41.50
64654;DHT22;51065;48.884;12.598;2022-08-01T14:47:58;30.80;41.20
64654;DHT22;51065;48.884;12.598;2022-08-01T14:50:24;31.20;40.70
64654;DHT22;51065;48.884;12.598;2022-08-01T14:52:52;31.00;41.30
64654;DHT22;51065;48.884;12.598;2022-08-01T14:55:18;31.20;41.90
64654;DHT22;51065;48.884;12.598;2022-08-01T14:57:43;31.30;41.40
64654;DHT22;51065;48.884;12.598;2022-08-01T15:00:10;31.20;41.10
64654;DHT22;51065;48.884;12.598;2022-08-01T15:02:38;31.00;42.50
64654;DHT22;51065;48.884;12.598;2022-08-01T15:05:04;31.10;41.90
64654;DHT22;51065;48.884;12.598;2022-08-01T15:07:30;31.30;41.90
64654;DHT22;51065;48.884;12.598;2022-08-01T15:09:55;31.60;41.40
64654;DHT22;51065;48.884;12.598;2022-08-01T15:12:21;31.40;39.90
64654;DHT22;51065;48.884;12.598;2022-08-01T15:14:47;31.30;40.10
64654;DHT22;51065;48.884;12.598;2022-08-01T15:17:26;31.30;39.70
64654;DHT22;51065;48.884;12.598;2022-08-01T15:19:59;31.10;40.80
64654;DHT22;51065;48.884;12.598;2022-08-01T15:22:26;30.80;40.70
64654;DHT22;51065;48.884;12.598;2022-08-01T15:24:53;30.80;40.30
64654;DHT22;51065;48.884;12.598;2022-08-01T15:27:18;30.60;40.50
64654;DHT22;51065;48.884;12.598;2022-08-01T15:29:44;30.50;40.90
64654;DHT22;51065;48.884;12.598;2022-08-01T15:32:11;30.60;40.50
64654;DHT22;51065;48.884;12.598;2022-08-01T15:34:37;30.80;40.70
64654;DHT22;51065;48.884;12.598;2022-08-01T15:37:03;31.00;40.60
64654;DHT22;51065;48.884;12.598;2022-08-01T15:39:30;31.30;39.10
64654;DHT22;51065;48.884;12.598;2022-08-01T15:42:00;31.30;39.20
64654;DHT22;51065;48.884;12.598;2022-08-01T15:44:26;31.20;39.20
64654;DHT22;51065;48.884;12.598;2022-08-01T15:46:52;31.30;40.00
64654;DHT22;51065;48.884;12.598;2022-08-01T15:49:17;31.40;39.70
64654;DHT22;51065;48.884;12.598;2022-08-01T15:51:43;31.50;40.10
64654;DHT22;51065;48.884;12.598;2022-08-01T15:54:10;31.60;38.80
64654;DHT22;51065;48.884;12.598;2022-08-01T15:56:36;31.50;38.60
64654;DHT22;51065;48.884;12.598;2022-08-01T15:59:03;31.40;38.80
64654;DHT22;51065;48.884;12.598;2022-08-01T16:01:29;31.20;38.90
64654;DHT22;51065;48.884;12.598;2022-08-01T16:03:55;31.20;38.60